createdAt,value
2018-04-28T00:02:23.649Z,61.80
2018-04-28T00:04:51.923Z,61.04
2018-04-28T00:07:20.240Z,59.64
2018-04-28T00:09:49.196Z,60.28
2018-04-28T00:12:17.565Z,57.89
2018-04-28T00:14:46.062Z,58.43
2018-04-28T00:17:17.876Z,57.00
2018-04-28T00:19:54.663Z,57.17
2018-04-28T00:22:25.063Z,56.80
2018-04-28T00:24:58.959Z,56.42
2018-04-28T00:27:47.173Z,56.61
2018-04-28T00:43:48.472Z,56.14
2018-04-28T00:46:32.508Z,55.53
2018-04-28T00:49:12.789Z,54.92
2018-04-28T00:51:42.000Z,54.97
2018-04-28T00:54:18.404Z,55.40
2018-04-28T01:10:52.607Z,60.62
2018-04-28T01:13:20.891Z,61.80
2018-04-28T01:15:49.319Z,63.08
2018-04-28T01:18:17.680Z,63.71
2018-04-28T01:20:49.852Z,65.02
2018-04-28T01:23:25.335Z,64.26
2018-04-28T01:25:54.253Z,65.09
2018-04-28T01:28:41.347Z,65.24
2018-04-28T01:31:09.623Z,66.30
2018-04-28T01:47:23.794Z,68.33
2018-04-28T01:49:57.967Z,67.54
2018-04-28T01:52:34.829Z,66.14
2018-04-28T02:08:30.812Z,68.17
2018-04-28T02:11:00.008Z,68.32
2018-04-28T02:13:48.231Z,68.33
2018-04-28T02:16:21.700Z,68.24
2018-04-28T02:19:06.294Z,68.15
2018-04-28T02:35:36.481Z,70.30
2018-04-28T02:38:11.492Z,70.43
2018-04-28T02:54:10.576Z,72.43
2018-04-28T03:10:24.112Z,72.42
2018-04-28T03:12:52.403Z,71.71
2018-04-28T03:15:20.688Z,70.46
2018-04-28T03:17:54.239Z,70.39
2018-04-28T03:20:24.407Z,70.38
2018-04-28T03:22:59.224Z,70.05
2018-04-28T03:25:43.079Z,69.57
2018-04-28T03:28:24.835Z,69.85
2018-04-28T03:30:56.846Z,69.20
2018-04-28T03:33:45.487Z,69.21
2018-04-28T03:36:30.655Z,69.67
2018-04-28T03:39:18.238Z,69.04
2018-04-28T03:41:57.275Z,69.55
2018-04-28T03:45:03.112Z,70.64
2018-04-28T03:47:43.120Z,71.16
2018-04-28T03:50:28.926Z,72.24
2018-04-28T03:53:04.975Z,72.45
2018-04-28T03:55:34.695Z,72.84
2018-04-28T03:58:20.714Z,73.44
2018-04-28T04:01:06.474Z,73.78
2018-04-28T04:03:34.776Z,73.86
2018-04-28T04:19:41.606Z,74.13
2018-04-28T04:22:17.239Z,74.03
2018-04-28T04:25:15.332Z,74.18
2018-04-28T04:27:52.671Z,74.43
2018-04-28T04:44:15.491Z,71.78
2018-04-28T04:50:10.670Z,72.48
2018-04-28T04:52:49.169Z,72.53
2018-04-28T04:55:25.356Z,73.12
2018-04-28T05:12:09.500Z,72.53
2018-04-28T05:28:21.959Z,67.98
2018-04-28T05:30:58.263Z,67.76
2018-04-28T05:33:39.267Z,67.18
2018-04-28T05:36:17.272Z,66.25
2018-04-28T05:53:11.904Z,61.29
2018-04-28T05:55:57.365Z,59.91
2018-04-28T06:12:21.819Z,59.48
2018-04-28T06:28:17.605Z,59.31
2018-04-28T06:30:45.884Z,59.13
2018-04-28T06:33:14.177Z,60.80
2018-04-28T06:35:42.580Z,62.89
2018-04-28T06:38:10.808Z,61.47
2018-04-28T06:40:39.102Z,60.28
2018-04-28T06:43:07.418Z,60.51
2018-04-28T06:45:35.698Z,59.65
2018-04-28T06:48:04.622Z,57.04
2018-04-28T06:50:32.918Z,53.00
2018-04-28T06:53:01.203Z,52.11
2018-04-28T06:55:29.547Z,52.07
2018-04-28T06:57:57.835Z,50.57
2018-04-28T07:00:26.131Z,51.50
2018-04-28T07:02:54.442Z,51.47
2018-04-28T07:05:24.234Z,53.06
2018-04-28T07:07:52.570Z,57.50
2018-04-28T07:10:23.284Z,62.05
2018-04-28T07:12:51.624Z,64.41
2018-04-28T07:15:20.700Z,67.54
2018-04-28T07:17:50.474Z,69.52
2018-04-28T07:20:18.829Z,74.73
2018-04-28T07:22:47.119Z,77.87
2018-04-28T07:25:15.567Z,78.30
2018-04-28T07:27:44.570Z,77.73
2018-04-28T07:30:12.863Z,82.07
2018-04-28T07:32:41.248Z,84.01
2018-04-28T07:35:09.834Z,84.33
2018-04-28T07:37:38.462Z,83.57
2018-04-28T07:40:07.419Z,85.08
2018-04-28T07:42:36.480Z,83.48
2018-04-28T07:45:05.267Z,81.06
2018-04-28T07:47:34.186Z,80.86
2018-04-28T07:50:02.548Z,78.78
2018-04-28T07:52:30.844Z,79.74
2018-04-28T07:54:59.138Z,81.31
2018-04-28T07:57:27.456Z,81.38
2018-04-28T07:59:56.231Z,78.74
2018-04-28T08:02:24.840Z,79.74
2018-04-28T08:04:53.459Z,76.60
2018-04-28T08:07:21.787Z,75.90
2018-04-28T08:09:50.080Z,70.46
2018-04-28T08:12:18.367Z,69.82
2018-04-28T08:14:47.171Z,65.00
2018-04-28T08:17:15.535Z,59.84
2018-04-28T08:19:44.567Z,51.38
2018-04-28T08:22:12.862Z,49.53
2018-04-28T08:24:41.325Z,48.62
2018-04-28T08:27:09.623Z,48.50
2018-04-28T08:29:37.971Z,52.28
2018-04-28T08:32:06.936Z,52.88
2018-04-28T08:34:35.279Z,55.23
2018-04-28T08:37:03.643Z,56.37
2018-04-28T08:39:32.406Z,54.90
2018-04-28T08:42:01.542Z,57.20
2018-04-28T08:44:29.851Z,60.78
2018-04-28T08:46:58.303Z,57.32
2018-04-28T08:49:26.585Z,60.06
2018-04-28T08:51:54.879Z,57.66
2018-04-28T08:54:23.251Z,57.26
2018-04-28T08:56:51.588Z,59.56
2018-04-28T08:59:19.984Z,59.05
2018-04-28T09:01:48.334Z,56.87
2018-04-28T09:04:16.623Z,55.71
2018-04-28T09:06:46.739Z,57.80
2018-04-28T09:09:15.051Z,57.16
2018-04-28T09:11:43.432Z,58.32
2018-04-28T09:14:11.728Z,62.19
2018-04-28T09:16:40.015Z,64.99
2018-04-28T09:19:08.331Z,64.96
2018-04-28T09:21:36.623Z,65.58
2018-04-28T09:24:04.969Z,66.67
2018-04-28T09:26:33.259Z,67.69
2018-04-28T09:29:01.546Z,67.00
2018-04-28T09:31:29.868Z,65.17
2018-04-28T09:33:58.393Z,63.08
2018-04-28T09:36:27.872Z,61.19
2018-04-28T09:38:56.146Z,63.62
2018-04-28T09:41:24.630Z,63.04
2018-04-28T09:43:52.957Z,64.34
2018-04-28T09:46:21.345Z,64.24
2018-04-28T09:48:49.772Z,65.57
2018-04-28T09:51:18.868Z,67.07
2018-04-28T09:53:47.166Z,67.66
2018-04-28T09:56:16.252Z,65.02
2018-04-28T09:58:44.566Z,62.03
2018-04-28T10:01:18.411Z,58.95
2018-04-28T10:03:46.693Z,55.17
2018-04-28T10:06:14.978Z,53.28
2018-04-28T10:08:43.323Z,48.16
2018-04-28T10:11:11.600Z,37.14
2018-04-28T10:13:39.885Z,43.18
2018-04-28T10:16:08.243Z,44.55
2018-04-28T10:18:36.519Z,39.09
2018-04-28T10:21:04.803Z,39.81
2018-04-28T10:23:33.143Z,39.61
2018-04-28T10:26:01.703Z,41.76
2018-04-28T10:28:29.996Z,40.52
2018-04-28T10:30:58.550Z,37.69
2018-04-28T10:33:27.531Z,36.00
2018-04-28T10:35:55.816Z,36.50
2018-04-28T10:38:24.124Z,39.77
2018-04-28T10:40:53.853Z,37.65
2018-04-28T10:43:22.176Z,39.84
2018-04-28T10:45:50.516Z,35.77
2018-04-28T10:48:18.808Z,33.43
2018-04-28T10:50:47.099Z,31.88
2018-04-28T10:53:15.615Z,31.92
2018-04-28T10:55:44.022Z,28.76
2018-04-28T10:58:12.438Z,28.14
2018-04-28T11:00:40.779Z,30.33
2018-04-28T11:03:09.059Z,31.58
2018-04-28T11:05:37.425Z,29.85
2018-04-28T11:08:05.679Z,29.15
2018-04-28T11:10:33.950Z,29.67
2018-04-28T11:13:02.339Z,27.93
2018-04-28T11:15:31.563Z,31.25
2018-04-28T11:18:00.619Z,28.59
2018-04-28T11:20:28.903Z,28.55
2018-04-28T11:22:57.795Z,28.87
2018-04-28T11:25:26.769Z,29.01
2018-04-28T11:27:54.991Z,30.95
2018-04-28T11:30:23.334Z,30.78
2018-04-28T11:32:51.673Z,31.64
2018-04-28T11:35:19.924Z,31.49
2018-04-28T11:37:48.266Z,29.64
2018-04-28T11:40:16.552Z,30.82
2018-04-28T11:42:45.311Z,28.76
2018-04-28T11:45:13.638Z,29.87
2018-04-28T11:47:41.975Z,30.12
2018-04-28T11:50:10.267Z,31.77
2018-04-28T11:52:38.730Z,33.43
2018-04-28T11:55:07.019Z,36.51
2018-04-28T11:57:35.963Z,36.81
2018-04-28T12:00:04.284Z,34.07
2018-04-28T12:02:32.677Z,31.78
2018-04-28T12:05:01.075Z,28.83
2018-04-28T12:07:29.413Z,31.05
2018-04-28T12:09:57.691Z,37.14
2018-04-28T12:12:25.979Z,33.47
2018-04-28T12:14:54.313Z,30.15
2018-04-28T12:17:22.599Z,28.65
2018-04-28T12:19:50.886Z,31.46
2018-04-28T12:22:19.739Z,34.35
2018-04-28T12:24:48.791Z,34.58
2018-04-28T12:27:17.179Z,37.06
2018-04-28T12:29:45.520Z,39.04
2018-04-28T12:32:13.867Z,39.20
2018-04-28T12:34:42.979Z,37.78
2018-04-28T12:37:11.258Z,35.94
2018-04-28T12:39:40.574Z,32.58
2018-04-28T12:42:09.704Z,32.35
2018-04-28T12:44:38.052Z,31.23
2018-04-28T12:47:06.367Z,33.10
2018-04-28T12:49:34.706Z,33.60
2018-04-28T12:52:03.008Z,33.77
2018-04-28T12:54:31.302Z,32.58
2018-04-28T12:56:59.812Z,30.72
2018-04-28T12:59:28.095Z,29.38
2018-04-28T13:01:56.922Z,31.62
2018-04-28T13:04:25.270Z,27.06
2018-04-28T13:06:53.562Z,26.75
2018-04-28T13:09:21.844Z,27.19
2018-04-28T13:11:50.162Z,30.52
2018-04-28T13:14:18.436Z,25.61
2018-04-28T13:16:46.715Z,27.56
2018-04-28T13:19:15.027Z,27.94
2018-04-28T13:21:43.367Z,28.91
2018-04-28T13:24:12.080Z,29.13
2018-04-28T13:26:40.371Z,25.75
2018-04-28T13:29:09.646Z,26.85
2018-04-28T13:31:38.432Z,25.20
2018-04-28T13:34:06.706Z,29.82
2018-04-28T13:36:35.011Z,27.95
2018-04-28T13:39:03.343Z,23.96
2018-04-28T13:41:31.634Z,23.54
2018-04-28T13:44:00.083Z,25.01
2018-04-28T13:46:29.095Z,26.67
2018-04-28T13:48:57.385Z,31.37
2018-04-28T13:51:25.670Z,30.30
2018-04-28T13:53:54.283Z,25.33
2018-04-28T13:56:22.980Z,23.10
2018-04-28T13:58:51.277Z,23.64
2018-04-28T14:01:19.671Z,21.40
2018-04-28T14:03:48.000Z,28.02
2018-04-28T14:06:16.912Z,33.61
2018-04-28T14:08:45.235Z,34.17
2018-04-28T14:11:14.359Z,32.13
2018-04-28T14:13:42.879Z,33.46
2018-04-28T14:16:11.663Z,36.15
2018-04-28T14:18:40.172Z,37.19
2018-04-28T14:21:08.441Z,37.00
2018-04-28T14:23:36.790Z,31.30
2018-04-28T14:26:05.072Z,36.12
2018-04-28T14:28:33.378Z,39.47
2018-04-28T14:31:01.691Z,40.42
2018-04-28T14:33:30.035Z,40.88
2018-04-28T14:35:58.319Z,40.18
2018-04-28T14:38:26.855Z,38.80
2018-04-28T14:40:55.375Z,36.51
2018-04-28T14:43:23.747Z,39.52
2018-04-28T14:45:52.034Z,38.66
2018-04-28T14:48:21.033Z,38.66
2018-04-28T14:50:49.703Z,35.75
2018-04-28T14:53:18.112Z,37.07
2018-04-28T14:55:47.365Z,35.44
2018-04-28T14:58:15.664Z,37.19
2018-04-28T15:00:44.235Z,36.42
2018-04-28T15:03:12.556Z,38.96
2018-04-28T15:05:41.456Z,37.52
2018-04-28T15:08:10.019Z,36.99
2018-04-28T15:10:38.352Z,38.27
2018-04-28T15:13:06.631Z,39.73
2018-04-28T15:15:35.339Z,39.18
2018-04-28T15:18:03.633Z,38.22
2018-04-28T15:20:31.932Z,38.14
2018-04-28T15:23:00.386Z,37.33
2018-04-28T15:25:28.815Z,37.50
2018-04-28T15:27:58.219Z,38.18
2018-04-28T15:30:26.659Z,36.76
2018-04-28T15:32:55.769Z,35.87
2018-04-28T15:35:24.052Z,38.68
2018-04-28T15:37:53.205Z,43.64
2018-04-28T15:40:22.199Z,43.07
2018-04-28T15:42:50.813Z,41.67
2018-04-28T15:45:19.103Z,40.06
2018-04-28T15:47:48.603Z,40.16
2018-04-28T15:50:17.652Z,40.59
2018-04-28T15:52:46.839Z,41.90
2018-04-28T15:55:15.290Z,41.44
2018-04-28T15:57:43.591Z,44.00
2018-04-28T16:00:12.675Z,43.43
2018-04-28T16:02:41.069Z,41.25
2018-04-28T16:05:09.346Z,40.43
2018-04-28T16:07:37.632Z,41.60
2018-04-28T16:10:06.039Z,43.07
2018-04-28T16:12:34.327Z,42.23
2018-04-28T16:15:02.651Z,42.24
2018-04-28T16:17:31.750Z,43.76
2018-04-28T16:20:00.064Z,44.48
2018-04-28T16:22:28.419Z,45.22
2018-04-28T16:24:57.170Z,46.34
2018-04-28T16:27:26.200Z,47.05
2018-04-28T16:29:54.411Z,47.23
2018-04-28T16:32:22.732Z,47.23
2018-04-28T16:34:51.043Z,46.46
2018-04-28T16:37:19.474Z,46.83
2018-04-28T16:39:51.479Z,46.91
2018-04-28T16:42:19.812Z,47.44
2018-04-28T16:44:48.112Z,48.59
2018-04-28T16:47:16.391Z,49.18
2018-04-28T16:49:45.238Z,48.92
2018-04-28T16:52:13.528Z,48.29
2018-04-28T16:54:42.692Z,48.84
2018-04-28T16:57:11.604Z,48.98
2018-04-28T16:59:40.315Z,49.34
2018-04-28T17:02:10.258Z,49.39
2018-04-28T17:04:39.995Z,49.43
2018-04-28T17:07:08.812Z,49.83
2018-04-28T17:09:38.174Z,49.36
2018-04-28T17:12:06.479Z,50.53
2018-04-28T17:14:35.374Z,51.49
2018-04-28T17:17:03.841Z,51.69
2018-04-28T17:19:32.807Z,52.31
2018-04-28T17:22:01.896Z,52.65
2018-04-28T17:24:30.231Z,53.07
2018-04-28T17:26:58.518Z,53.23
2018-04-28T17:29:27.397Z,53.64
2018-04-28T17:31:55.713Z,53.25
2018-04-28T17:34:24.091Z,53.57
2018-04-28T17:36:53.199Z,53.76
2018-04-28T17:39:21.607Z,53.55
2018-04-28T17:41:50.571Z,53.99
2018-04-28T17:44:18.855Z,53.68
2018-04-28T17:46:47.162Z,53.69
2018-04-28T17:49:15.559Z,53.57
2018-04-28T17:51:44.402Z,53.78
2018-04-28T17:54:12.693Z,53.76
2018-04-28T17:56:41.480Z,54.00
2018-04-28T17:59:10.375Z,53.63
2018-04-28T18:01:39.133Z,53.06
2018-04-28T18:04:07.476Z,53.25
2018-04-28T18:06:35.776Z,53.63
2018-04-28T18:09:04.252Z,53.70
2018-04-28T18:11:33.205Z,53.58
2018-04-28T18:14:01.500Z,53.77
2018-04-28T18:16:31.416Z,53.90
2018-04-28T18:18:59.710Z,54.21
2018-04-28T18:21:28.798Z,54.31
2018-04-28T18:23:57.135Z,54.13
2018-04-28T18:26:25.535Z,54.60
2018-04-28T18:28:54.503Z,54.25
2018-04-28T18:31:22.827Z,54.39
2018-04-28T18:33:51.186Z,54.54
2018-04-28T18:36:19.538Z,54.48
2018-04-28T18:38:48.326Z,54.91
2018-04-28T18:41:17.194Z,55.26
2018-04-28T18:43:45.519Z,55.46
2018-04-28T18:46:13.810Z,55.66
2018-04-28T18:48:42.107Z,55.21
2018-04-28T18:51:10.430Z,55.27
2018-04-28T18:53:38.716Z,55.60
2018-04-28T18:56:07.776Z,55.61
2018-04-28T18:58:36.135Z,55.69
2018-04-28T19:01:05.082Z,55.52
2018-04-28T19:03:33.487Z,55.23
2018-04-28T19:06:01.831Z,55.04
2018-04-28T19:08:30.902Z,55.26
2018-04-28T19:10:59.218Z,55.22
2018-04-28T19:13:27.860Z,55.05
2018-04-28T19:15:56.399Z,55.37
2018-04-28T19:18:25.803Z,55.23
2018-04-28T19:20:54.827Z,54.98
2018-04-28T19:23:24.056Z,55.08
2018-04-28T19:25:53.620Z,55.26
2018-04-28T19:28:21.915Z,55.56
2018-04-28T19:30:50.202Z,55.37
2018-04-28T19:33:18.716Z,55.05
2018-04-28T19:35:51.818Z,55.00
2018-04-28T19:38:20.925Z,55.24
2018-04-28T19:40:49.970Z,55.08
2018-04-28T19:43:18.256Z,54.83
2018-04-28T19:45:46.535Z,54.52
2018-04-28T19:48:15.251Z,54.86
2018-04-28T19:50:43.535Z,54.57
2018-04-28T19:53:12.210Z,54.22
2018-04-28T19:55:41.224Z,54.26
2018-04-28T19:58:11.480Z,54.65
2018-04-28T20:00:39.768Z,54.73
2018-04-28T20:03:08.561Z,54.92
2018-04-28T20:05:36.942Z,54.88
2018-04-28T20:08:06.108Z,55.02
2018-04-28T20:10:34.574Z,55.05
2018-04-28T20:13:03.167Z,55.36
2018-04-28T20:15:31.572Z,55.55
2018-04-28T20:18:00.329Z,55.59
2018-04-28T20:20:29.379Z,56.02
2018-04-28T20:23:16.280Z,56.38
2018-04-28T20:25:44.559Z,56.55
2018-04-28T20:28:12.836Z,55.94
2018-04-28T20:30:41.721Z,55.12
2018-04-28T20:33:10.110Z,54.68
2018-04-28T20:35:38.400Z,54.28
2018-04-28T20:38:06.758Z,53.68
2018-04-28T20:40:35.775Z,53.78
2018-04-28T20:43:04.104Z,53.84
2018-04-28T20:45:33.143Z,54.13
2018-04-28T20:48:01.491Z,54.25
2018-04-28T20:50:30.355Z,54.14
2018-04-28T20:52:59.613Z,54.02
2018-04-28T20:55:28.318Z,54.20
2018-04-28T20:57:58.431Z,55.08
2018-04-28T21:00:27.814Z,55.96
2018-04-28T21:02:56.275Z,57.39
2018-04-28T21:05:25.796Z,58.24
2018-04-28T21:07:54.865Z,59.04
2018-04-28T21:10:23.419Z,59.08
2018-04-28T21:12:53.065Z,59.58
2018-04-28T21:15:27.246Z,59.61
2018-04-28T21:17:55.534Z,58.38
2018-04-28T21:20:24.406Z,56.90
2018-04-28T21:22:52.909Z,56.67
2018-04-28T21:25:21.527Z,56.34
2018-04-28T21:27:49.820Z,56.44
2018-04-28T21:30:19.197Z,57.01
2018-04-28T21:32:47.758Z,57.20
2018-04-28T21:35:16.083Z,57.98
2018-04-28T21:37:44.423Z,58.44
2018-04-28T21:40:12.682Z,58.57
2018-04-28T21:42:40.972Z,59.19
2018-04-28T21:45:09.287Z,58.92
2018-04-28T21:47:40.064Z,57.87
2018-04-28T21:50:10.043Z,57.75
2018-04-28T21:52:38.391Z,56.90
2018-04-28T21:55:06.669Z,56.86
2018-04-28T21:57:34.967Z,56.10
2018-04-28T22:00:03.555Z,56.39
2018-04-28T22:02:31.835Z,55.80
2018-04-28T22:05:00.490Z,56.06
2018-04-28T22:07:28.870Z,56.18
2018-04-28T22:09:57.157Z,56.21
2018-04-28T22:12:25.515Z,56.40
2018-04-28T22:14:53.851Z,56.55
2018-04-28T22:17:22.698Z,56.31
2018-04-28T22:19:50.978Z,56.68
2018-04-28T22:22:19.354Z,56.71
2018-04-28T22:24:47.978Z,56.93
2018-04-28T22:27:16.262Z,56.92
2018-04-28T22:29:44.579Z,57.15
2018-04-28T22:32:13.290Z,57.72
2018-04-28T22:34:41.584Z,57.91
2018-04-28T22:37:09.911Z,57.98
2018-04-28T22:39:39.046Z,58.48
2018-04-28T22:42:07.691Z,58.43
2018-04-28T22:44:36.019Z,58.38
2018-04-28T22:47:04.299Z,58.29
2018-04-28T22:49:32.595Z,58.94
2018-04-28T22:52:01.662Z,59.14
2018-04-28T22:54:29.950Z,59.02
2018-04-28T22:56:58.230Z,59.20
2018-04-28T22:59:26.731Z,59.52
2018-04-28T23:01:55.169Z,59.21
2018-04-28T23:04:23.454Z,59.12
2018-04-28T23:06:51.846Z,59.09
2018-04-28T23:09:20.115Z,59.35
2018-04-28T23:11:49.315Z,59.41
2018-04-28T23:14:17.598Z,59.62
2018-04-28T23:16:45.883Z,59.32
2018-04-28T23:19:14.327Z,58.88
2018-04-28T23:21:42.628Z,58.84
2018-04-28T23:24:10.926Z,58.60
2018-04-28T23:26:39.791Z,58.33
2018-04-28T23:29:08.104Z,58.29
2018-04-28T23:31:36.575Z,57.17
2018-04-28T23:34:04.892Z,57.00
2018-04-28T23:36:33.172Z,56.85
2018-04-28T23:39:05.156Z,56.92
2018-04-28T23:41:33.443Z,57.01
2018-04-28T23:44:01.734Z,56.79
2018-04-28T23:46:30.060Z,56.62
2018-04-28T23:48:58.655Z,56.12
2018-04-28T23:51:27.203Z,55.90
2018-04-28T23:53:55.531Z,55.97
2018-04-28T23:56:24.127Z,56.35
2018-04-28T23:58:52.500Z,56.48
